sensor_id;sensor_type;location;lat;lon;timestamp;temperature;humidity
19536;HTU21D;9913;51.168;4.124;2023-05-10T00:02:25;12.74;81.95
19536;HTU21D;9913;51.168;4.124;2023-05-10T00:05:12;12.74;81.69
19536;HTU21D;9913;51.168;4.124;2023-05-10T00:07:54;12.76;81.86
19536;HTU21D;9913;51.168;4.124;2023-05-10T00:11:06;12.69;81.91
19536;HTU21D;9913;51.168;4.124;2023-05-10T00:14:01;12.60;81.59
19536;HTU21D;9913;51.168;4.124;2023-05-10T00:17:19;12.59;82.01
19536;HTU21D;9913;51.168;4.124;2023-05-10T00:20:08;12.55;82.36
19536;HTU21D;9913;51.168;4.124;2023-05-10T00:23:05;12.43;81.99
19536;HTU21D;9913;51.168;4.124;2023-05-10T00:25:36;12.47;82.32
19536;HTU21D;9913;51.168;4.124;2023-05-10T00:28:04;12.38;82.39
19536;HTU21D;9913;51.168;4.124;2023-05-10T00:30:35;12.38;82.69
19536;HTU21D;9913;51.168;4.124;2023-05-10T00:33:04;12.32;82.71
19536;HTU21D;9913;51.168;4.124;2023-05-10T00:35:37;12.30;82.88
19536;HTU21D;9913;51.168;4.124;2023-05-10T00:38:16;12.36;83.00
19536;HTU21D;9913;51.168;4.124;2023-05-10T00:40:47;12.37;82.92
19536;HTU21D;9913;51.168;4.124;2023-05-10T00:43:23;12.40;82.86
19536;HTU21D;9913;51.168;4.124;2023-05-10T00:45:53;12.43;82.75
19536;HTU21D;9913;51.168;4.124;2023-05-10T00:48:22;12.49;82.64
19536;HTU21D;9913;51.168;4.124;2023-05-10T00:50:50;12.44;82.25
19536;HTU21D;9913;51.168;4.124;2023-05-10T00:53:19;12.46;82.08
19536;HTU21D;9913;51.168;4.124;2023-05-10T00:55:48;12.47;81.97
19536;HTU21D;9913;51.168;4.124;2023-05-10T00:58:16;12.52;81.84
19536;HTU21D;9913;51.168;4.124;2023-05-10T01:00:46;12.50;82.12
19536;HTU21D;9913;51.168;4.124;2023-05-10T01:03:17;12.51;82.13
19536;HTU21D;9913;51.168;4.124;2023-05-10T01:05:48;12.56;82.20
19536;HTU21D;9913;51.168;4.124;2023-05-10T01:08:17;12.47;81.95
19536;HTU21D;9913;51.168;4.124;2023-05-10T01:10:47;12.51;82.11
19536;HTU21D;9913;51.168;4.124;2023-05-10T01:13:27;12.51;81.97
19536;HTU21D;9913;51.168;4.124;2023-05-10T01:15:59;12.47;81.76
19536;HTU21D;9913;51.168;4.124;2023-05-10T01:18:33;12.48;82.15
19536;HTU21D;9913;51.168;4.124;2023-05-10T01:21:12;12.49;82.44
19536;HTU21D;9913;51.168;4.124;2023-05-10T01:23:58;12.46;82.14
19536;HTU21D;9913;51.168;4.124;2023-05-10T01:26:45;12.44;81.76
19536;HTU21D;9913;51.168;4.124;2023-05-10T01:29:28;12.44;82.37
19536;HTU21D;9913;51.168;4.124;2023-05-10T01:32:16;12.43;82.53
19536;HTU21D;9913;51.168;4.124;2023-05-10T01:34:54;12.47;82.58
19536;HTU21D;9913;51.168;4.124;2023-05-10T01:37:31;12.47;82.13
19536;HTU21D;9913;51.168;4.124;2023-05-10T01:40:08;12.46;81.99
19536;HTU21D;9913;51.168;4.124;2023-05-10T01:42:44;12.48;82.11
19536;HTU21D;9913;51.168;4.124;2023-05-10T01:45:19;12.47;82.20
19536;HTU21D;9913;51.168;4.124;2023-05-10T01:47:55;12.49;82.27
19536;HTU21D;9913;51.168;4.124;2023-05-10T01:50:30;12.56;82.48
19536;HTU21D;9913;51.168;4.124;2023-05-10T01:53:00;12.50;82.09
19536;HTU21D;9913;51.168;4.124;2023-05-10T01:55:33;12.57;82.36
19536;HTU21D;9913;51.168;4.124;2023-05-10T01:58:06;12.52;82.38
19536;HTU21D;9913;51.168;4.124;2023-05-10T02:00:35;12.50;82.29
19536;HTU21D;9913;51.168;4.124;2023-05-10T02:03:07;12.48;82.18
19536;HTU21D;9913;51.168;4.124;2023-05-10T02:05:37;12.46;82.35
19536;HTU21D;9913;51.168;4.124;2023-05-10T02:08:07;12.55;82.23
19536;HTU21D;9913;51.168;4.124;2023-05-10T02:10:37;12.57;81.88
19536;HTU21D;9913;51.168;4.124;2023-05-10T02:13:07;12.45;81.36
19536;HTU21D;9913;51.168;4.124;2023-05-10T02:15:37;12.56;81.62
19536;HTU21D;9913;51.168;4.124;2023-05-10T02:18:09;12.51;81.75
19536;HTU21D;9913;51.168;4.124;2023-05-10T02:20:39;12.49;81.73
19536;HTU21D;9913;51.168;4.124;2023-05-10T02:23:08;12.43;81.59
19536;HTU21D;9913;51.168;4.124;2023-05-10T02:25:38;12.44;81.40
19536;HTU21D;9913;51.168;4.124;2023-05-10T02:28:07;12.44;81.68
19536;HTU21D;9913;51.168;4.124;2023-05-10T02:30:37;12.33;81.33
19536;HTU21D;9913;51.168;4.124;2023-05-10T02:33:07;12.34;80.49
19536;HTU21D;9913;51.168;4.124;2023-05-10T02:35:37;12.38;80.58
19536;HTU21D;9913;51.168;4.124;2023-05-10T02:38:09;12.31;80.88
19536;HTU21D;9913;51.168;4.124;2023-05-10T02:40:40;12.32;80.88
19536;HTU21D;9913;51.168;4.124;2023-05-10T02:43:12;12.32;80.30
19536;HTU21D;9913;51.168;4.124;2023-05-10T02:45:41;12.30;80.64
19536;HTU21D;9913;51.168;4.124;2023-05-10T02:48:13;12.32;81.12
19536;HTU21D;9913;51.168;4.124;2023-05-10T02:50:43;12.30;80.88
19536;HTU21D;9913;51.168;4.124;2023-05-10T02:53:15;12.33;80.55
19536;HTU21D;9913;51.168;4.124;2023-05-10T02:55:50;12.26;80.08
19536;HTU21D;9913;51.168;4.124;2023-05-10T02:58:19;12.29;80.14
19536;HTU21D;9913;51.168;4.124;2023-05-10T03:00:48;12.28;80.33
19536;HTU21D;9913;51.168;4.124;2023-05-10T03:03:18;12.26;79.86
19536;HTU21D;9913;51.168;4.124;2023-05-10T03:05:49;12.32;80.45
19536;HTU21D;9913;51.168;4.124;2023-05-10T03:08:20;12.26;80.62
19536;HTU21D;9913;51.168;4.124;2023-05-10T03:10:55;12.21;80.04
19536;HTU21D;9913;51.168;4.124;2023-05-10T03:13:31;12.25;80.85
19536;HTU21D;9913;51.168;4.124;2023-05-10T03:16:07;12.25;81.04
19536;HTU21D;9913;51.168;4.124;2023-05-10T03:18:42;12.31;80.44
19536;HTU21D;9913;51.168;4.124;2023-05-10T03:21:13;12.14;79.85
19536;HTU21D;9913;51.168;4.124;2023-05-10T03:23:46;12.12;80.37
19536;HTU21D;9913;51.168;4.124;2023-05-10T03:26:20;12.13;80.81
19536;HTU21D;9913;51.168;4.124;2023-05-10T03:28:49;12.23;80.56
19536;HTU21D;9913;51.168;4.124;2023-05-10T03:31:18;12.13;80.01
19536;HTU21D;9913;51.168;4.124;2023-05-10T03:33:49;12.17;79.67
19536;HTU21D;9913;51.168;4.124;2023-05-10T03:36:23;12.17;80.25
19536;HTU21D;9913;51.168;4.124;2023-05-10T03:38:51;12.19;80.82
19536;HTU21D;9913;51.168;4.124;2023-05-10T03:41:20;12.13;80.72
19536;HTU21D;9913;51.168;4.124;2023-05-10T03:43:48;12.14;80.63
19536;HTU21D;9913;51.168;4.124;2023-05-10T03:46:16;12.13;80.36
19536;HTU21D;9913;51.168;4.124;2023-05-10T03:48:45;12.17;81.17
19536;HTU21D;9913;51.168;4.124;2023-05-10T03:51:15;12.20;80.94
19536;HTU21D;9913;51.168;4.124;2023-05-10T03:53:44;12.15;80.84
19536;HTU21D;9913;51.168;4.124;2023-05-10T03:56:12;12.15;79.63
19536;HTU21D;9913;51.168;4.124;2023-05-10T03:58:40;12.20;80.17
19536;HTU21D;9913;51.168;4.124;2023-05-10T04:01:09;12.16;80.54
19536;HTU21D;9913;51.168;4.124;2023-05-10T04:03:37;12.25;80.45
19536;HTU21D;9913;51.168;4.124;2023-05-10T04:06:06;12.18;80.98
19536;HTU21D;9913;51.168;4.124;2023-05-10T04:08:37;12.16;81.02
19536;HTU21D;9913;51.168;4.124;2023-05-10T04:11:06;12.15;80.69
19536;HTU21D;9913;51.168;4.124;2023-05-10T04:13:35;12.11;80.72
19536;HTU21D;9913;51.168;4.124;2023-05-10T04:16:04;12.20;80.47
19536;HTU21D;9913;51.168;4.124;2023-05-10T04:18:32;12.15;80.07
19536;HTU21D;9913;51.168;4.124;2023-05-10T04:21:01;12.17;80.30
19536;HTU21D;9913;51.168;4.124;2023-05-10T04:23:29;12.25;80.44
19536;HTU21D;9913;51.168;4.124;2023-05-10T04:26:02;12.20;80.16
19536;HTU21D;9913;51.168;4.124;2023-05-10T04:28:31;12.23;79.97
19536;HTU21D;9913;51.168;4.124;2023-05-10T04:31:03;12.30;80.47
19536;HTU21D;9913;51.168;4.124;2023-05-10T04:33:32;12.30;80.34
19536;HTU21D;9913;51.168;4.124;2023-05-10T04:36:01;12.30;80.36
19536;HTU21D;9913;51.168;4.124;2023-05-10T04:38:29;12.34;79.65
19536;HTU21D;9913;51.168;4.124;2023-05-10T04:41:05;12.47;79.46
19536;HTU21D;9913;51.168;4.124;2023-05-10T04:43:34;12.42;79.49
19536;HTU21D;9913;51.168;4.124;2023-05-10T04:46:03;12.45;79.09
19536;HTU21D;9913;51.168;4.124;2023-05-10T04:48:31;12.46;79.63
19536;HTU21D;9913;51.168;4.124;2023-05-10T04:51:00;12.55;79.29
19536;HTU21D;9913;51.168;4.124;2023-05-10T04:53:30;12.61;79.87
19536;HTU21D;9913;51.168;4.124;2023-05-10T04:55:59;12.47;79.69
19536;HTU21D;9913;51.168;4.124;2023-05-10T04:58:29;12.56;79.30
19536;HTU21D;9913;51.168;4.124;2023-05-10T05:00:59;12.58;79.19
19536;HTU21D;9913;51.168;4.124;2023-05-10T05:03:32;12.63;79.16
19536;HTU21D;9913;51.168;4.124;2023-05-10T05:06:01;12.58;79.21
19536;HTU21D;9913;51.168;4.124;2023-05-10T05:08:29;12.48;79.38
19536;HTU21D;9913;51.168;4.124;2023-05-10T05:10:58;12.45;78.95
19536;HTU21D;9913;51.168;4.124;2023-05-10T05:13:26;12.33;79.44
19536;HTU21D;9913;51.168;4.124;2023-05-10T05:15:56;12.36;79.49
19536;HTU21D;9913;51.168;4.124;2023-05-10T05:18:24;12.49;79.56
19536;HTU21D;9913;51.168;4.124;2023-05-10T05:20:52;12.51;79.18
19536;HTU21D;9913;51.168;4.124;2023-05-10T05:23:21;12.56;78.39
19536;HTU21D;9913;51.168;4.124;2023-05-10T05:25:51;12.61;78.53
19536;HTU21D;9913;51.168;4.124;2023-05-10T05:28:20;12.74;78.32
19536;HTU21D;9913;51.168;4.124;2023-05-10T05:30:48;12.80;78.14
19536;HTU21D;9913;51.168;4.124;2023-05-10T05:33:18;12.87;78.09
19536;HTU21D;9913;51.168;4.124;2023-05-10T05:35:46;12.95;77.66
19536;HTU21D;9913;51.168;4.124;2023-05-10T05:38:17;12.99;77.52
19536;HTU21D;9913;51.168;4.124;2023-05-10T05:40:46;12.94;77.72
19536;HTU21D;9913;51.168;4.124;2023-05-10T05:43:14;12.89;77.61
19536;HTU21D;9913;51.168;4.124;2023-05-10T05:45:42;12.93;77.45
19536;HTU21D;9913;51.168;4.124;2023-05-10T05:48:11;13.01;78.18
19536;HTU21D;9913;51.168;4.124;2023-05-10T05:50:41;13.03;77.69
19536;HTU21D;9913;51.168;4.124;2023-05-10T05:53:10;12.93;78.11
19536;HTU21D;9913;51.168;4.124;2023-05-10T05:55:38;12.93;77.92
19536;HTU21D;9913;51.168;4.124;2023-05-10T05:58:06;12.99;78.11
19536;HTU21D;9913;51.168;4.124;2023-05-10T06:00:35;12.99;78.66
19536;HTU21D;9913;51.168;4.124;2023-05-10T06:03:03;13.11;78.63
19536;HTU21D;9913;51.168;4.124;2023-05-10T06:05:32;13.18;77.85
19536;HTU21D;9913;51.168;4.124;2023-05-10T06:08:01;13.22;77.53
19536;HTU21D;9913;51.168;4.124;2023-05-10T06:10:30;13.32;78.18
19536;HTU21D;9913;51.168;4.124;2023-05-10T06:12:58;13.34;78.06
19536;HTU21D;9913;51.168;4.124;2023-05-10T06:15:27;13.29;77.58
19536;HTU21D;9913;51.168;4.124;2023-05-10T06:17:55;13.23;77.73
19536;HTU21D;9913;51.168;4.124;2023-05-10T06:20:24;13.26;77.97
19536;HTU21D;9913;51.168;4.124;2023-05-10T06:22:52;13.26;78.14
19536;HTU21D;9913;51.168;4.124;2023-05-10T06:25:23;13.36;78.08
19536;HTU21D;9913;51.168;4.124;2023-05-10T06:27:51;13.30;78.40
19536;HTU21D;9913;51.168;4.124;2023-05-10T06:30:24;13.27;78.24
19536;HTU21D;9913;51.168;4.124;2023-05-10T06:32:55;13.22;78.00
19536;HTU21D;9913;51.168;4.124;2023-05-10T06:35:24;13.25;78.39
19536;HTU21D;9913;51.168;4.124;2023-05-10T06:37:53;13.25;78.01
19536;HTU21D;9913;51.168;4.124;2023-05-10T06:40:22;13.23;78.13
19536;HTU21D;9913;51.168;4.124;2023-05-10T06:42:51;13.23;78.19
19536;HTU21D;9913;51.168;4.124;2023-05-10T06:45:19;13.19;77.86
19536;HTU21D;9913;51.168;4.124;2023-05-10T06:47:48;13.20;78.16
19536;HTU21D;9913;51.168;4.124;2023-05-10T06:50:16;13.17;78.31
19536;HTU21D;9913;51.168;4.124;2023-05-10T06:52:45;13.19;78.29
19536;HTU21D;9913;51.168;4.124;2023-05-10T06:55:13;13.15;78.21
19536;HTU21D;9913;51.168;4.124;2023-05-10T06:57:43;13.21;77.82
19536;HTU21D;9913;51.168;4.124;2023-05-10T07:00:13;13.44;78.02
19536;HTU21D;9913;51.168;4.124;2023-05-10T07:02:42;13.67;77.84
19536;HTU21D;9913;51.168;4.124;2023-05-10T07:05:10;13.94;77.31
19536;HTU21D;9913;51.168;4.124;2023-05-10T07:07:39;14.08;77.07
19536;HTU21D;9913;51.168;4.124;2023-05-10T07:10:08;14.32;76.82
19536;HTU21D;9913;51.168;4.124;2023-05-10T07:12:37;14.63;77.79
19536;HTU21D;9913;51.168;4.124;2023-05-10T07:15:08;14.54;76.59
19536;HTU21D;9913;51.168;4.124;2023-05-10T07:17:37;14.68;77.51
19536;HTU21D;9913;51.168;4.124;2023-05-10T07:20:08;14.66;76.62
19536;HTU21D;9913;51.168;4.124;2023-05-10T07:22:37;14.73;77.27
19536;HTU21D;9913;51.168;4.124;2023-05-10T07:25:06;15.17;76.90
19536;HTU21D;9913;51.168;4.124;2023-05-10T07:27:35;15.56;76.97
19536;HTU21D;9913;51.168;4.124;2023-05-10T07:30:04;15.75;78.78
19536;HTU21D;9913;51.168;4.124;2023-05-10T07:32:33;15.65;78.22
19536;HTU21D;9913;51.168;4.124;2023-05-10T07:35:02;15.66;79.30
19536;HTU21D;9913;51.168;4.124;2023-05-10T07:37:31;15.65;78.58
19536;HTU21D;9913;51.168;4.124;2023-05-10T07:39:59;15.14;77.78
19536;HTU21D;9913;51.168;4.124;2023-05-10T07:42:29;15.17;76.89
19536;HTU21D;9913;51.168;4.124;2023-05-10T07:44:57;15.30;77.25
19536;HTU21D;9913;51.168;4.124;2023-05-10T07:47:25;15.15;76.95
19536;HTU21D;9913;51.168;4.124;2023-05-10T07:49:56;14.89;78.11
19536;HTU21D;9913;51.168;4.124;2023-05-10T07:52:24;14.91;77.55
19536;HTU21D;9913;51.168;4.124;2023-05-10T07:54:53;14.81;77.91
19536;HTU21D;9913;51.168;4.124;2023-05-10T07:57:23;15.04;77.98
19536;HTU21D;9913;51.168;4.124;2023-05-10T07:59:52;15.59;79.09
19536;HTU21D;9913;51.168;4.124;2023-05-10T08:02:20;15.96;79.37
19536;HTU21D;9913;51.168;4.124;2023-05-10T08:04:49;16.72;80.49
19536;HTU21D;9913;51.168;4.124;2023-05-10T08:07:18;16.96;78.64
19536;HTU21D;9913;51.168;4.124;2023-05-10T08:09:47;17.07;81.19
19536;HTU21D;9913;51.168;4.124;2023-05-10T08:12:15;17.35;79.26
19536;HTU21D;9913;51.168;4.124;2023-05-10T08:14:43;17.31;78.82
19536;HTU21D;9913;51.168;4.124;2023-05-10T08:17:12;17.62;78.72
19536;HTU21D;9913;51.168;4.124;2023-05-10T08:19:40;17.88;78.97
19536;HTU21D;9913;51.168;4.124;2023-05-10T08:22:09;17.18;76.79
19536;HTU21D;9913;51.168;4.124;2023-05-10T08:24:39;17.23;80.18
19536;HTU21D;9913;51.168;4.124;2023-05-10T08:27:09;17.55;76.08
19536;HTU21D;9913;51.168;4.124;2023-05-10T08:29:40;17.59;78.25
19536;HTU21D;9913;51.168;4.124;2023-05-10T08:32:16;16.94;77.02
19536;HTU21D;9913;51.168;4.124;2023-05-10T08:34:45;17.07;77.42
19536;HTU21D;9913;51.168;4.124;2023-05-10T08:37:17;17.16;81.22
19536;HTU21D;9913;51.168;4.124;2023-05-10T08:39:47;17.88;80.86
19536;HTU21D;9913;51.168;4.124;2023-05-10T08:42:18;17.76;77.87
19536;HTU21D;9913;51.168;4.124;2023-05-10T08:44:48;17.76;78.56
19536;HTU21D;9913;51.168;4.124;2023-05-10T08:47:18;17.44;79.32
19536;HTU21D;9913;51.168;4.124;2023-05-10T08:49:47;17.34;79.27
19536;HTU21D;9913;51.168;4.124;2023-05-10T08:52:18;17.48;80.85
19536;HTU21D;9913;51.168;4.124;2023-05-10T08:54:48;17.55;78.44
19536;HTU21D;9913;51.168;4.124;2023-05-10T08:57:17;17.80;76.96
19536;HTU21D;9913;51.168;4.124;2023-05-10T08:59:47;17.88;78.29
19536;HTU21D;9913;51.168;4.124;2023-05-10T09:02:16;17.31;77.53
19536;HTU21D;9913;51.168;4.124;2023-05-10T09:04:45;16.65;77.53
19536;HTU21D;9913;51.168;4.124;2023-05-10T09:07:14;15.99;77.79
19536;HTU21D;9913;51.168;4.124;2023-05-10T09:09:43;15.60;77.02
19536;HTU21D;9913;51.168;4.124;2023-05-10T09:12:13;15.42;78.08
19536;HTU21D;9913;51.168;4.124;2023-05-10T09:14:44;15.40;79.30
19536;HTU21D;9913;51.168;4.124;2023-05-10T09:17:13;15.49;77.62
19536;HTU21D;9913;51.168;4.124;2023-05-10T09:19:42;15.72;79.06
19536;HTU21D;9913;51.168;4.124;2023-05-10T09:22:10;15.96;78.80
19536;HTU21D;9913;51.168;4.124;2023-05-10T09:24:39;16.35;77.74
19536;HTU21D;9913;51.168;4.124;2023-05-10T09:27:13;17.22;80.15
19536;HTU21D;9913;51.168;4.124;2023-05-10T09:29:42;18.04;79.37
19536;HTU21D;9913;51.168;4.124;2023-05-10T09:32:11;18.66;78.93
19536;HTU21D;9913;51.168;4.124;2023-05-10T09:34:40;18.64;78.47
19536;HTU21D;9913;51.168;4.124;2023-05-10T09:37:09;19.07;77.55
19536;HTU21D;9913;51.168;4.124;2023-05-10T09:39:38;19.29;79.49
19536;HTU21D;9913;51.168;4.124;2023-05-10T09:42:09;19.36;79.17
19536;HTU21D;9913;51.168;4.124;2023-05-10T09:44:38;18.83;77.11
19536;HTU21D;9913;51.168;4.124;2023-05-10T09:47:07;18.58;78.30
19536;HTU21D;9913;51.168;4.124;2023-05-10T09:49:36;18.86;79.59
19536;HTU21D;9913;51.168;4.124;2023-05-10T09:52:06;19.00;77.05
19536;HTU21D;9913;51.168;4.124;2023-05-10T09:54:34;19.16;76.70
19536;HTU21D;9913;51.168;4.124;2023-05-10T09:57:03;19.44;76.93
19536;HTU21D;9913;51.168;4.124;2023-05-10T09:59:33;18.96;76.71
19536;HTU21D;9913;51.168;4.124;2023-05-10T10:02:03;19.03;77.31
19536;HTU21D;9913;51.168;4.124;2023-05-10T10:04:32;19.02;76.54
19536;HTU21D;9913;51.168;4.124;2023-05-10T10:07:01;18.68;77.24
19536;HTU21D;9913;51.168;4.124;2023-05-10T10:09:31;19.16;76.76
19536;HTU21D;9913;51.168;4.124;2023-05-10T10:12:00;19.07;77.01
19536;HTU21D;9913;51.168;4.124;2023-05-10T10:14:29;19.14;75.69
19536;HTU21D;9913;51.168;4.124;2023-05-10T10:17:00;19.55;76.11
19536;HTU21D;9913;51.168;4.124;2023-05-10T10:19:34;18.61;78.41
19536;HTU21D;9913;51.168;4.124;2023-05-10T10:22:04;17.98;77.73
19536;HTU21D;9913;51.168;4.124;2023-05-10T10:24:33;17.85;78.20
19536;HTU21D;9913;51.168;4.124;2023-05-10T10:27:09;18.23;77.82
19536;HTU21D;9913;51.168;4.124;2023-05-10T10:29:47;17.75;77.10
19536;HTU21D;9913;51.168;4.124;2023-05-10T10:32:23;17.50;77.34
19536;HTU21D;9913;51.168;4.124;2023-05-10T10:34:55;17.66;76.78
19536;HTU21D;9913;51.168;4.124;2023-05-10T10:37:41;17.55;76.29
19536;HTU21D;9913;51.168;4.124;2023-05-10T10:40:23;17.66;78.79
19536;HTU21D;9913;51.168;4.124;2023-05-10T10:42:52;17.96;76.41
19536;HTU21D;9913;51.168;4.124;2023-05-10T10:45:22;18.36;77.25
19536;HTU21D;9913;51.168;4.124;2023-05-10T10:50:44;17.91;76.68
19536;HTU21D;9913;51.168;4.124;2023-05-10T10:53:13;18.05;78.09
19536;HTU21D;9913;51.168;4.124;2023-05-10T10:55:46;18.18;77.40
19536;HTU21D;9913;51.168;4.124;2023-05-10T10:58:29;18.27;77.08
19536;HTU21D;9913;51.168;4.124;2023-05-10T11:01:19;18.27;75.78
19536;HTU21D;9913;51.168;4.124;2023-05-10T11:04:18;18.97;76.12
19536;HTU21D;9913;51.168;4.124;2023-05-10T11:06:48;19.36;76.10
19536;HTU21D;9913;51.168;4.124;2023-05-10T11:09:16;19.58;76.33
19536;HTU21D;9913;51.168;4.124;2023-05-10T11:11:50;18.87;75.63
19536;HTU21D;9913;51.168;4.124;2023-05-10T11:14:20;18.69;75.52
19536;HTU21D;9913;51.168;4.124;2023-05-10T11:16:49;18.24;75.51
19536;HTU21D;9913;51.168;4.124;2023-05-10T11:19:18;18.28;76.66
19536;HTU21D;9913;51.168;4.124;2023-05-10T11:21:49;17.84;76.48
19536;HTU21D;9913;51.168;4.124;2023-05-10T11:24:19;18.22;77.30
19536;HTU21D;9913;51.168;4.124;2023-05-10T11:26:50;18.21;75.46
19536;HTU21D;9913;51.168;4.124;2023-05-10T11:29:19;18.53;77.18
19536;HTU21D;9913;51.168;4.124;2023-05-10T11:31:48;19.02;76.79
19536;HTU21D;9913;51.168;4.124;2023-05-10T11:34:24;19.29;75.72
19536;HTU21D;9913;51.168;4.124;2023-05-10T11:36:55;18.65;75.41
19536;HTU21D;9913;51.168;4.124;2023-05-10T11:39:26;17.90;75.79
19536;HTU21D;9913;51.168;4.124;2023-05-10T11:41:58;17.66;76.32
19536;HTU21D;9913;51.168;4.124;2023-05-10T11:44:47;17.67;75.86
19536;HTU21D;9913;51.168;4.124;2023-05-10T11:47:16;17.51;76.70
19536;HTU21D;9913;51.168;4.124;2023-05-10T11:49:44;17.03;75.86
19536;HTU21D;9913;51.168;4.124;2023-05-10T11:52:14;17.04;76.57
19536;HTU21D;9913;51.168;4.124;2023-05-10T11:54:51;17.08;76.34
19536;HTU21D;9913;51.168;4.124;2023-05-10T11:57:19;17.06;77.60
19536;HTU21D;9913;51.168;4.124;2023-05-10T11:59:53;16.88;76.36
19536;HTU21D;9913;51.168;4.124;2023-05-10T12:02:21;17.02;77.18
19536;HTU21D;9913;51.168;4.124;2023-05-10T12:04:50;16.94;77.48
19536;HTU21D;9913;51.168;4.124;2023-05-10T12:07:20;16.99;76.01
19536;HTU21D;9913;51.168;4.124;2023-05-10T12:10:03;16.65;77.08
19536;HTU21D;9913;51.168;4.124;2023-05-10T12:12:36;16.65;76.42
19536;HTU21D;9913;51.168;4.124;2023-05-10T12:15:10;16.95;77.24
19536;HTU21D;9913;51.168;4.124;2023-05-10T12:17:39;16.63;76.43
19536;HTU21D;9913;51.168;4.124;2023-05-10T12:20:19;16.63;77.08
19536;HTU21D;9913;51.168;4.124;2023-05-10T12:22:52;16.82;77.40
19536;HTU21D;9913;51.168;4.124;2023-05-10T12:25:22;16.80;76.55
19536;HTU21D;9913;51.168;4.124;2023-05-10T12:27:51;16.78;76.78
19536;HTU21D;9913;51.168;4.124;2023-05-10T12:30:24;16.91;76.75
19536;HTU21D;9913;51.168;4.124;2023-05-10T12:33:12;16.80;77.00
19536;HTU21D;9913;51.168;4.124;2023-05-10T12:35:58;16.80;76.21
19536;HTU21D;9913;51.168;4.124;2023-05-10T12:38:36;16.63;76.47
19536;HTU21D;9913;51.168;4.124;2023-05-10T12:41:33;16.24;77.19
19536;HTU21D;9913;51.168;4.124;2023-05-10T12:44:09;15.89;77.53
19536;HTU21D;9913;51.168;4.124;2023-05-10T12:46:39;15.93;77.44
19536;HTU21D;9913;51.168;4.124;2023-05-10T12:49:08;15.73;76.80
19536;HTU21D;9913;51.168;4.124;2023-05-10T12:51:37;15.72;77.18
19536;HTU21D;9913;51.168;4.124;2023-05-10T12:54:07;15.61;77.05
19536;HTU21D;9913;51.168;4.124;2023-05-10T12:56:36;15.43;76.89
19536;HTU21D;9913;51.168;4.124;2023-05-10T12:59:05;15.51;77.56
19536;HTU21D;9913;51.168;4.124;2023-05-10T13:01:34;15.49;76.98
19536;HTU21D;9913;51.168;4.124;2023-05-10T13:04:03;15.27;77.12
19536;HTU21D;9913;51.168;4.124;2023-05-10T13:06:36;15.31;76.66
19536;HTU21D;9913;51.168;4.124;2023-05-10T13:09:09;15.37;77.04
19536;HTU21D;9913;51.168;4.124;2023-05-10T13:11:44;15.42;77.44
19536;HTU21D;9913;51.168;4.124;2023-05-10T13:14:39;15.66;76.71
19536;HTU21D;9913;51.168;4.124;2023-05-10T13:17:09;15.56;76.17
19536;HTU21D;9913;51.168;4.124;2023-05-10T13:19:38;15.68;75.92
19536;HTU21D;9913;51.168;4.124;2023-05-10T13:22:07;15.83;76.76
19536;HTU21D;9913;51.168;4.124;2023-05-10T13:24:36;15.96;76.46
19536;HTU21D;9913;51.168;4.124;2023-05-10T13:27:05;15.83;76.31
19536;HTU21D;9913;51.168;4.124;2023-05-10T13:29:33;15.97;76.72
19536;HTU21D;9913;51.168;4.124;2023-05-10T13:32:02;16.18;76.12
19536;HTU21D;9913;51.168;4.124;2023-05-10T13:34:30;16.14;76.19
19536;HTU21D;9913;51.168;4.124;2023-05-10T13:36:59;16.13;76.76
19536;HTU21D;9913;51.168;4.124;2023-05-10T13:39:27;15.75;76.37
19536;HTU21D;9913;51.168;4.124;2023-05-10T13:42:01;15.80;76.17
19536;HTU21D;9913;51.168;4.124;2023-05-10T13:44:30;15.95;76.66
19536;HTU21D;9913;51.168;4.124;2023-05-10T13:47:00;15.92;76.39
19536;HTU21D;9913;51.168;4.124;2023-05-10T13:49:28;15.99;76.92
19536;HTU21D;9913;51.168;4.124;2023-05-10T13:51:57;16.03;76.62
19536;HTU21D;9913;51.168;4.124;2023-05-10T13:54:26;15.82;76.95
19536;HTU21D;9913;51.168;4.124;2023-05-10T13:56:56;15.77;76.66
19536;HTU21D;9913;51.168;4.124;2023-05-10T13:59:26;15.65;77.02
19536;HTU21D;9913;51.168;4.124;2023-05-10T14:01:54;15.41;76.21
19536;HTU21D;9913;51.168;4.124;2023-05-10T14:04:22;15.18;76.33
19536;HTU21D;9913;51.168;4.124;2023-05-10T14:06:51;14.93;75.76
19536;HTU21D;9913;51.168;4.124;2023-05-10T14:09:20;14.73;76.44
19536;HTU21D;9913;51.168;4.124;2023-05-10T14:11:50;14.25;76.81
19536;HTU21D;9913;51.168;4.124;2023-05-10T14:14:19;14.24;77.26
19536;HTU21D;9913;51.168;4.124;2023-05-10T14:16:51;13.90;76.11
19536;HTU21D;9913;51.168;4.124;2023-05-10T14:19:19;13.50;76.73
19536;HTU21D;9913;51.168;4.124;2023-05-10T14:21:51;13.44;77.11
19536;HTU21D;9913;51.168;4.124;2023-05-10T14:24:27;13.50;77.62
19536;HTU21D;9913;51.168;4.124;2023-05-10T14:26:56;13.53;77.90
19536;HTU21D;9913;51.168;4.124;2023-05-10T14:29:25;13.53;77.79
19536;HTU21D;9913;51.168;4.124;2023-05-10T14:31:55;13.64;78.11
19536;HTU21D;9913;51.168;4.124;2023-05-10T14:34:24;13.76;77.34
19536;HTU21D;9913;51.168;4.124;2023-05-10T14:36:52;13.79;76.31
19536;HTU21D;9913;51.168;4.124;2023-05-10T14:39:21;13.81;76.21
19536;HTU21D;9913;51.168;4.124;2023-05-10T14:41:49;13.88;75.86
19536;HTU21D;9913;51.168;4.124;2023-05-10T14:44:19;13.66;75.71
19536;HTU21D;9913;51.168;4.124;2023-05-10T14:46:48;13.59;75.83
19536;HTU21D;9913;51.168;4.124;2023-05-10T14:49:25;13.48;76.03
19536;HTU21D;9913;51.168;4.124;2023-05-10T14:52:20;13.52;76.60
19536;HTU21D;9913;51.168;4.124;2023-05-10T14:54:51;13.44;76.47
19536;HTU21D;9913;51.168;4.124;2023-05-10T14:57:29;13.37;76.51
19536;HTU21D;9913;51.168;4.124;2023-05-10T14:59:57;13.43;76.18
19536;HTU21D;9913;51.168;4.124;2023-05-10T15:02:26;13.35;76.09
19536;HTU21D;9913;51.168;4.124;2023-05-10T15:04:58;13.44;74.83
19536;HTU21D;9913;51.168;4.124;2023-05-10T15:07:31;13.40;75.77
19536;HTU21D;9913;51.168;4.124;2023-05-10T15:10:07;13.38;76.66
19536;HTU21D;9913;51.168;4.124;2023-05-10T15:12:39;13.27;76.87
19536;HTU21D;9913;51.168;4.124;2023-05-10T15:15:08;13.32;76.59
19536;HTU21D;9913;51.168;4.124;2023-05-10T15:17:40;13.35;76.86
19536;HTU21D;9913;51.168;4.124;2023-05-10T15:20:20;13.37;77.22
19536;HTU21D;9913;51.168;4.124;2023-05-10T15:22:48;13.39;76.51
19536;HTU21D;9913;51.168;4.124;2023-05-10T15:25:17;13.35;76.15
19536;HTU21D;9913;51.168;4.124;2023-05-10T15:27:45;13.29;76.50
19536;HTU21D;9913;51.168;4.124;2023-05-10T15:30:14;13.24;76.60
19536;HTU21D;9913;51.168;4.124;2023-05-10T15:32:45;13.19;76.29
19536;HTU21D;9913;51.168;4.124;2023-05-10T15:35:21;13.21;76.55
19536;HTU21D;9913;51.168;4.124;2023-05-10T15:37:50;13.17;77.35
19536;HTU21D;9913;51.168;4.124;2023-05-10T15:40:18;13.15;77.54
19536;HTU21D;9913;51.168;4.124;2023-05-10T15:42:47;13.14;78.03
19536;HTU21D;9913;51.168;4.124;2023-05-10T15:45:16;13.25;78.29
19536;HTU21D;9913;51.168;4.124;2023-05-10T15:47:45;13.22;77.75
19536;HTU21D;9913;51.168;4.124;2023-05-10T15:50:14;13.21;78.10
19536;HTU21D;9913;51.168;4.124;2023-05-10T15:52:44;13.25;78.37
19536;HTU21D;9913;51.168;4.124;2023-05-10T15:55:12;13.21;78.13
19536;HTU21D;9913;51.168;4.124;2023-05-10T15:57:44;13.11;78.36
19536;HTU21D;9913;51.168;4.124;2023-05-10T16:00:16;13.16;78.99